sensor_id;sensor_type;location;lat;lon;timestamp;P1;durP1;ratioP1;P2;durP2;ratioP2
9306;SDS011;4691;47.612;7.610;2022-12-29T00:01:27;7.60;;;4.38;;
9306;SDS011;4691;47.612;7.610;2022-12-29T00:03:52;9.90;;;3.97;;
9306;SDS011;4691;47.612;7.610;2022-12-29T00:06:18;9.23;;;4.32;;
9306;SDS011;4691;47.612;7.610;2022-12-29T00:08:43;9.88;;;4.85;;
9306;SDS011;4691;47.612;7.610;2022-12-29T00:11:09;9.10;;;4.55;;
9306;SDS011;4691;47.612;7.610;2022-12-29T00:13:37;9.82;;;4.30;;
9306;SDS011;4691;47.612;7.610;2022-12-29T00:16:21;9.30;;;4.35;;
9306;SDS011;4691;47.612;7.610;2022-12-29T00:18:47;7.65;;;4.00;;
9306;SDS011;4691;47.612;7.610;2022-12-29T00:21:13;10.00;;;4.68;;
9306;SDS011;4691;47.612;7.610;2022-12-29T00:23:59;10.07;;;5.38;;
9306;SDS011;4691;47.612;7.610;2022-12-29T00:26:43;13.45;;;6.00;;
9306;SDS011;4691;47.612;7.610;2022-12-29T00:29:27;8.07;;;4.85;;
9306;SDS011;4691;47.612;7.610;2022-12-29T00:32:11;8.93;;;4.30;;
9306;SDS011;4691;47.612;7.610;2022-12-29T00:34:55;11.82;;;5.03;;
9306;SDS011;4691;47.612;7.610;2022-12-29T00:37:42;7.93;;;4.47;;
9306;SDS011;4691;47.612;7.610;2022-12-29T00:40:29;12.32;;;4.90;;
9306;SDS011;4691;47.612;7.610;2022-12-29T00:43:13;9.95;;;4.88;;
9306;SDS011;4691;47.612;7.610;2022-12-29T00:45:57;11.85;;;4.93;;
9306;SDS011;4691;47.612;7.610;2022-12-29T00:48:22;9.02;;;5.53;;
9306;SDS011;4691;47.612;7.610;2022-12-29T00:51:06;14.00;;;5.43;;
9306;SDS011;4691;47.612;7.610;2022-12-29T00:53:32;8.68;;;5.03;;
9306;SDS011;4691;47.612;7.610;2022-12-29T00:55:58;7.35;;;4.35;;
9306;SDS011;4691;47.612;7.610;2022-12-29T00:58:26;11.57;;;4.63;;
9306;SDS011;4691;47.612;7.610;2022-12-29T01:00:52;8.18;;;4.25;;
9306;SDS011;4691;47.612;7.610;2022-12-29T01:03:17;6.03;;;3.30;;
9306;SDS011;4691;47.612;7.610;2022-12-29T01:05:43;7.30;;;3.72;;
9306;SDS011;4691;47.612;7.610;2022-12-29T01:08:09;6.93;;;3.63;;
9306;SDS011;4691;47.612;7.610;2022-12-29T01:10:34;9.95;;;4.03;;
9306;SDS011;4691;47.612;7.610;2022-12-29T01:12:59;10.82;;;4.07;;
9306;SDS011;4691;47.612;7.610;2022-12-29T01:15:24;6.15;;;3.80;;
9306;SDS011;4691;47.612;7.610;2022-12-29T01:17:50;8.43;;;3.35;;
9306;SDS011;4691;47.612;7.610;2022-12-29T01:20:15;6.65;;;3.22;;
9306;SDS011;4691;47.612;7.610;2022-12-29T01:22:40;6.78;;;3.75;;
9306;SDS011;4691;47.612;7.610;2022-12-29T01:25:07;15.98;;;5.18;;
9306;SDS011;4691;47.612;7.610;2022-12-29T01:27:32;8.77;;;5.13;;
9306;SDS011;4691;47.612;7.610;2022-12-29T01:29:58;10.38;;;5.82;;
9306;SDS011;4691;47.612;7.610;2022-12-29T01:32:23;12.38;;;6.20;;
9306;SDS011;4691;47.612;7.610;2022-12-29T01:34:48;13.45;;;6.05;;
9306;SDS011;4691;47.612;7.610;2022-12-29T01:37:14;8.38;;;5.80;;
9306;SDS011;4691;47.612;7.610;2022-12-29T01:39:39;9.60;;;5.88;;
9306;SDS011;4691;47.612;7.610;2022-12-29T01:42:04;10.40;;;6.18;;
9306;SDS011;4691;47.612;7.610;2022-12-29T01:47:16;10.30;;;5.45;;
9306;SDS011;4691;47.612;7.610;2022-12-29T01:49:47;11.20;;;6.05;;
9306;SDS011;4691;47.612;7.610;2022-12-29T01:52:13;9.60;;;6.13;;
9306;SDS011;4691;47.612;7.610;2022-12-29T01:54:40;13.15;;;5.75;;
9306;SDS011;4691;47.612;7.610;2022-12-29T01:57:17;12.48;;;6.60;;
9306;SDS011;4691;47.612;7.610;2022-12-29T01:59:53;15.15;;;7.50;;
9306;SDS011;4691;47.612;7.610;2022-12-29T02:02:23;10.23;;;7.10;;
9306;SDS011;4691;47.612;7.610;2022-12-29T02:04:49;11.10;;;6.70;;
9306;SDS011;4691;47.612;7.610;2022-12-29T02:07:17;12.70;;;6.32;;
9306;SDS011;4691;47.612;7.610;2022-12-29T02:09:48;10.25;;;6.00;;
9306;SDS011;4691;47.612;7.610;2022-12-29T02:12:15;11.63;;;6.38;;
9306;SDS011;4691;47.612;7.610;2022-12-29T02:14:42;9.10;;;6.35;;
9306;SDS011;4691;47.612;7.610;2022-12-29T02:17:08;8.77;;;5.85;;
9306;SDS011;4691;47.612;7.610;2022-12-29T02:19:57;11.20;;;5.97;;
9306;SDS011;4691;47.612;7.610;2022-12-29T02:28:37;12.52;;;5.90;;
9306;SDS011;4691;47.612;7.610;2022-12-29T02:37:48;14.20;;;7.55;;
9306;SDS011;4691;47.612;7.610;2022-12-29T02:40:24;13.77;;;7.10;;
9306;SDS011;4691;47.612;7.610;2022-12-29T02:43:02;12.27;;;7.15;;
9306;SDS011;4691;47.612;7.610;2022-12-29T02:45:48;13.10;;;6.93;;
9306;SDS011;4691;47.612;7.610;2022-12-29T02:48:28;11.75;;;6.75;;
9306;SDS011;4691;47.612;7.610;2022-12-29T02:51:02;11.85;;;6.57;;
9306;SDS011;4691;47.612;7.610;2022-12-29T02:53:48;10.68;;;6.15;;
9306;SDS011;4691;47.612;7.610;2022-12-29T02:56:32;13.15;;;6.57;;
9306;SDS011;4691;47.612;7.610;2022-12-29T02:58:57;15.20;;;6.13;;
9306;SDS011;4691;47.612;7.610;2022-12-29T03:01:32;11.38;;;5.95;;
9306;SDS011;4691;47.612;7.610;2022-12-29T03:04:04;14.30;;;5.65;;
9306;SDS011;4691;47.612;7.610;2022-12-29T03:09:50;9.63;;;4.88;;
9306;SDS011;4691;47.612;7.610;2022-12-29T03:12:32;7.85;;;5.30;;
9306;SDS011;4691;47.612;7.610;2022-12-29T03:15:41;13.32;;;4.70;;
9306;SDS011;4691;47.612;7.610;2022-12-29T04:13:17;8.45;;;4.15;;
9306;SDS011;4691;47.612;7.610;2022-12-29T04:19:57;6.68;;;4.30;;
9306;SDS011;4691;47.612;7.610;2022-12-29T04:29:58;6.68;;;4.38;;
9306;SDS011;4691;47.612;7.610;2022-12-29T04:37:09;8.55;;;4.60;;
9306;SDS011;4691;47.612;7.610;2022-12-29T04:51:35;7.45;;;4.07;;
9306;SDS011;4691;47.612;7.610;2022-12-29T05:58:35;4.15;;;2.53;;
9306;SDS011;4691;47.612;7.610;2022-12-29T06:21:43;5.70;;;1.95;;
9306;SDS011;4691;47.612;7.610;2022-12-29T06:25:12;4.30;;;2.10;;
9306;SDS011;4691;47.612;7.610;2022-12-29T07:57:28;9.23;;;2.45;;
9306;SDS011;4691;47.612;7.610;2022-12-29T07:59:53;7.18;;;2.60;;
9306;SDS011;4691;47.612;7.610;2022-12-29T08:02:19;6.93;;;2.38;;
9306;SDS011;4691;47.612;7.610;2022-12-29T08:04:44;6.80;;;2.40;;
9306;SDS011;4691;47.612;7.610;2022-12-29T08:07:09;6.95;;;2.65;;
9306;SDS011;4691;47.612;7.610;2022-12-29T08:09:34;4.65;;;2.38;;
9306;SDS011;4691;47.612;7.610;2022-12-29T08:12:00;8.32;;;2.28;;
9306;SDS011;4691;47.612;7.610;2022-12-29T08:14:25;5.53;;;2.33;;
9306;SDS011;4691;47.612;7.610;2022-12-29T08:16:50;4.75;;;2.50;;
9306;SDS011;4691;47.612;7.610;2022-12-29T08:19:15;5.45;;;2.65;;
9306;SDS011;4691;47.612;7.610;2022-12-29T08:21:41;5.93;;;2.28;;
9306;SDS011;4691;47.612;7.610;2022-12-29T08:24:06;5.25;;;2.85;;
9306;SDS011;4691;47.612;7.610;2022-12-29T08:26:33;7.72;;;2.60;;
9306;SDS011;4691;47.612;7.610;2022-12-29T08:28:58;5.80;;;2.10;;
9306;SDS011;4691;47.612;7.610;2022-12-29T08:31:23;8.73;;;3.10;;
9306;SDS011;4691;47.612;7.610;2022-12-29T08:33:49;6.88;;;2.53;;
9306;SDS011;4691;47.612;7.610;2022-12-29T08:36:14;7.22;;;2.70;;
9306;SDS011;4691;47.612;7.610;2022-12-29T08:38:40;6.38;;;2.88;;
9306;SDS011;4691;47.612;7.610;2022-12-29T08:41:05;7.53;;;2.47;;
9306;SDS011;4691;47.612;7.610;2022-12-29T08:43:31;3.80;;;2.22;;
9306;SDS011;4691;47.612;7.610;2022-12-29T08:45:59;10.15;;;2.72;;
9306;SDS011;4691;47.612;7.610;2022-12-29T08:48:25;6.43;;;2.70;;
9306;SDS011;4691;47.612;7.610;2022-12-29T08:50:51;5.00;;;2.53;;
9306;SDS011;4691;47.612;7.610;2022-12-29T08:53:17;4.40;;;2.80;;
9306;SDS011;4691;47.612;7.610;2022-12-29T08:55:46;6.90;;;2.53;;
9306;SDS011;4691;47.612;7.610;2022-12-29T08:58:19;6.57;;;2.38;;
9306;SDS011;4691;47.612;7.610;2022-12-29T09:00:44;8.32;;;2.58;;
9306;SDS011;4691;47.612;7.610;2022-12-29T09:03:09;7.43;;;3.22;;
9306;SDS011;4691;47.612;7.610;2022-12-29T09:05:34;7.60;;;2.67;;
9306;SDS011;4691;47.612;7.610;2022-12-29T09:08:00;5.45;;;2.40;;
9306;SDS011;4691;47.612;7.610;2022-12-29T09:10:25;6.28;;;2.92;;
9306;SDS011;4691;47.612;7.610;2022-12-29T09:12:50;8.73;;;2.35;;
9306;SDS011;4691;47.612;7.610;2022-12-29T09:15:16;6.05;;;2.70;;
9306;SDS011;4691;47.612;7.610;2022-12-29T09:17:41;5.15;;;2.60;;
9306;SDS011;4691;47.612;7.610;2022-12-29T09:20:11;6.55;;;2.25;;
9306;SDS011;4691;47.612;7.610;2022-12-29T09:22:37;6.75;;;2.50;;
9306;SDS011;4691;47.612;7.610;2022-12-29T09:25:03;4.15;;;2.33;;
9306;SDS011;4691;47.612;7.610;2022-12-29T09:27:28;7.65;;;3.17;;
9306;SDS011;4691;47.612;7.610;2022-12-29T09:29:55;4.40;;;2.20;;
9306;SDS011;4691;47.612;7.610;2022-12-29T09:32:20;6.78;;;2.33;;
9306;SDS011;4691;47.612;7.610;2022-12-29T09:34:45;5.45;;;2.20;;
9306;SDS011;4691;47.612;7.610;2022-12-29T09:37:11;10.10;;;2.90;;
9306;SDS011;4691;47.612;7.610;2022-12-29T09:39:36;5.95;;;2.50;;
9306;SDS011;4691;47.612;7.610;2022-12-29T09:45:03;5.13;;;2.50;;
9306;SDS011;4691;47.612;7.610;2022-12-29T09:47:29;7.50;;;2.70;;
9306;SDS011;4691;47.612;7.610;2022-12-29T09:50:06;5.18;;;2.42;;
9306;SDS011;4691;47.612;7.610;2022-12-29T09:52:37;11.63;;;2.85;;
9306;SDS011;4691;47.612;7.610;2022-12-29T09:55:14;11.65;;;2.80;;
9306;SDS011;4691;47.612;7.610;2022-12-29T09:57:46;3.80;;;2.40;;
9306;SDS011;4691;47.612;7.610;2022-12-29T10:00:18;6.43;;;2.50;;
9306;SDS011;4691;47.612;7.610;2022-12-29T10:02:52;7.70;;;3.00;;
9306;SDS011;4691;47.612;7.610;2022-12-29T10:08:04;7.90;;;2.70;;
9306;SDS011;4691;47.612;7.610;2022-12-29T10:10:59;5.57;;;2.45;;
9306;SDS011;4691;47.612;7.610;2022-12-29T10:16:24;8.25;;;3.90;;
9306;SDS011;4691;47.612;7.610;2022-12-29T10:19:06;9.02;;;2.80;;
9306;SDS011;4691;47.612;7.610;2022-12-29T10:24:24;6.28;;;3.42;;
9306;SDS011;4691;47.612;7.610;2022-12-29T10:26:54;7.78;;;2.75;;
9306;SDS011;4691;47.612;7.610;2022-12-29T10:29:24;5.22;;;3.05;;
9306;SDS011;4691;47.612;7.610;2022-12-29T10:32:04;6.35;;;3.90;;
9306;SDS011;4691;47.612;7.610;2022-12-29T10:34:39;5.88;;;2.33;;
9306;SDS011;4691;47.612;7.610;2022-12-29T10:37:15;7.90;;;2.63;;
9306;SDS011;4691;47.612;7.610;2022-12-29T10:39:51;6.63;;;3.10;;
9306;SDS011;4691;47.612;7.610;2022-12-29T10:44:49;4.05;;;2.50;;
9306;SDS011;4691;47.612;7.610;2022-12-29T10:47:16;5.32;;;2.50;;
9306;SDS011;4691;47.612;7.610;2022-12-29T10:49:46;7.13;;;2.55;;
9306;SDS011;4691;47.612;7.610;2022-12-29T10:52:14;4.28;;;2.60;;
9306;SDS011;4691;47.612;7.610;2022-12-29T10:57:22;4.88;;;2.00;;
9306;SDS011;4691;47.612;7.610;2022-12-29T10:59:52;4.70;;;2.00;;
9306;SDS011;4691;47.612;7.610;2022-12-29T11:02:42;7.68;;;2.63;;
9306;SDS011;4691;47.612;7.610;2022-12-29T11:05:23;7.78;;;2.30;;
9306;SDS011;4691;47.612;7.610;2022-12-29T11:07:51;9.05;;;2.50;;
9306;SDS011;4691;47.612;7.610;2022-12-29T11:12:59;2.70;;;2.10;;
9306;SDS011;4691;47.612;7.610;2022-12-29T11:15:26;6.18;;;2.40;;
9306;SDS011;4691;47.612;7.610;2022-12-29T11:17:53;5.18;;;2.10;;
9306;SDS011;4691;47.612;7.610;2022-12-29T11:22:59;5.13;;;2.10;;
9306;SDS011;4691;47.612;7.610;2022-12-29T11:25:25;4.57;;;2.10;;
9306;SDS011;4691;47.612;7.610;2022-12-29T11:28:12;7.30;;;1.95;;
9306;SDS011;4691;47.612;7.610;2022-12-29T11:33:06;5.10;;;2.15;;
9306;SDS011;4691;47.612;7.610;2022-12-29T11:37:59;5.65;;;2.10;;
9306;SDS011;4691;47.612;7.610;2022-12-29T11:40:27;5.15;;;2.20;;
9306;SDS011;4691;47.612;7.610;2022-12-29T11:43:00;5.25;;;2.17;;
9306;SDS011;4691;47.612;7.610;2022-12-29T11:45:33;3.22;;;1.80;;
9306;SDS011;4691;47.612;7.610;2022-12-29T11:48:12;3.05;;;1.83;;
9306;SDS011;4691;47.612;7.610;2022-12-29T11:50:48;4.15;;;2.08;;
9306;SDS011;4691;47.612;7.610;2022-12-29T11:53:28;3.38;;;1.90;;
9306;SDS011;4691;47.612;7.610;2022-12-29T11:55:58;5.10;;;2.10;;
9306;SDS011;4691;47.612;7.610;2022-12-29T11:58:29;4.05;;;1.70;;
9306;SDS011;4691;47.612;7.610;2022-12-29T12:00:57;4.57;;;1.52;;
9306;SDS011;4691;47.612;7.610;2022-12-29T12:03:27;2.70;;;1.67;;
9306;SDS011;4691;47.612;7.610;2022-12-29T12:06:00;6.82;;;1.90;;
9306;SDS011;4691;47.612;7.610;2022-12-29T12:08:33;4.47;;;2.33;;
9306;SDS011;4691;47.612;7.610;2022-12-29T12:14:11;4.75;;;2.63;;
9306;SDS011;4691;47.612;7.610;2022-12-29T12:16:44;5.40;;;2.70;;
9306;SDS011;4691;47.612;7.610;2022-12-29T12:19:37;4.75;;;2.38;;
9306;SDS011;4691;47.612;7.610;2022-12-29T12:22:19;4.18;;;2.58;;
9306;SDS011;4691;47.612;7.610;2022-12-29T12:24:57;5.28;;;2.80;;
9306;SDS011;4691;47.612;7.610;2022-12-29T12:30:36;4.10;;;1.60;;
9306;SDS011;4691;47.612;7.610;2022-12-29T12:33:18;3.67;;;1.92;;
9306;SDS011;4691;47.612;7.610;2022-12-29T12:36:04;4.60;;;2.17;;
9306;SDS011;4691;47.612;7.610;2022-12-29T12:41:48;5.03;;;2.55;;
9306;SDS011;4691;47.612;7.610;2022-12-29T12:44:24;3.40;;;1.88;;
9306;SDS011;4691;47.612;7.610;2022-12-29T12:55:46;3.88;;;2.20;;
9306;SDS011;4691;47.612;7.610;2022-12-29T12:58:26;5.55;;;2.53;;
9306;SDS011;4691;47.612;7.610;2022-12-29T13:12:18;3.70;;;2.25;;
9306;SDS011;4691;47.612;7.610;2022-12-29T13:20:04;9.95;;;5.28;;
9306;SDS011;4691;47.612;7.610;2022-12-29T13:23:01;15.23;;;7.35;;
9306;SDS011;4691;47.612;7.610;2022-12-29T13:26:00;9.10;;;4.68;;
9306;SDS011;4691;47.612;7.610;2022-12-29T13:36:56;7.43;;;3.25;;
9306;SDS011;4691;47.612;7.610;2022-12-29T13:39:34;9.00;;;4.30;;
9306;SDS011;4691;47.612;7.610;2022-12-29T13:42:04;9.13;;;4.65;;
9306;SDS011;4691;47.612;7.610;2022-12-29T13:47:05;52.47;;;22.52;;
9306;SDS011;4691;47.612;7.610;2022-12-29T13:49:46;25.48;;;10.32;;
9306;SDS011;4691;47.612;7.610;2022-12-29T13:57:37;36.58;;;20.00;;
9306;SDS011;4691;47.612;7.610;2022-12-29T14:07:48;10.52;;;5.30;;
9306;SDS011;4691;47.612;7.610;2022-12-29T14:13:19;22.10;;;7.38;;
9306;SDS011;4691;47.612;7.610;2022-12-29T14:15:51;32.92;;;10.23;;
9306;SDS011;4691;47.612;7.610;2022-12-29T14:18:20;32.33;;;10.43;;
9306;SDS011;4691;47.612;7.610;2022-12-29T14:28:31;13.95;;;6.07;;
9306;SDS011;4691;47.612;7.610;2022-12-29T14:30:59;10.30;;;6.00;;
9306;SDS011;4691;47.612;7.610;2022-12-29T14:33:32;13.52;;;6.32;;
9306;SDS011;4691;47.612;7.610;2022-12-29T14:36:19;13.38;;;6.00;;
9306;SDS011;4691;47.612;7.610;2022-12-29T14:38:47;11.15;;;5.78;;
9306;SDS011;4691;47.612;7.610;2022-12-29T14:41:17;12.73;;;5.38;;
9306;SDS011;4691;47.612;7.610;2022-12-29T14:43:53;13.00;;;4.90;;
9306;SDS011;4691;47.612;7.610;2022-12-29T14:46:21;9.75;;;5.47;;
9306;SDS011;4691;47.612;7.610;2022-12-29T14:48:47;11.98;;;5.13;;
9306;SDS011;4691;47.612;7.610;2022-12-29T14:51:32;13.70;;;5.25;;
9306;SDS011;4691;47.612;7.610;2022-12-29T14:54:00;12.02;;;5.25;;
9306;SDS011;4691;47.612;7.610;2022-12-29T14:57:02;12.75;;;5.30;;
9306;SDS011;4691;47.612;7.610;2022-12-29T14:59:30;11.07;;;4.20;;
9306;SDS011;4691;47.612;7.610;2022-12-29T15:01:59;15.43;;;6.03;;
9306;SDS011;4691;47.612;7.610;2022-12-29T15:04:32;12.27;;;6.53;;
9306;SDS011;4691;47.612;7.610;2022-12-29T15:07:00;13.75;;;6.15;;
9306;SDS011;4691;47.612;7.610;2022-12-29T15:09:35;13.52;;;6.45;;
9306;SDS011;4691;47.612;7.610;2022-12-29T15:12:14;11.65;;;5.45;;
9306;SDS011;4691;47.612;7.610;2022-12-29T15:14:56;18.42;;;9.75;;
9306;SDS011;4691;47.612;7.610;2022-12-29T15:17:33;8.57;;;4.68;;
9306;SDS011;4691;47.612;7.610;2022-12-29T15:20:00;10.77;;;4.93;;
9306;SDS011;4691;47.612;7.610;2022-12-29T15:22:43;12.32;;;5.78;;
9306;SDS011;4691;47.612;7.610;2022-12-29T15:25:14;10.23;;;6.60;;
9306;SDS011;4691;47.612;7.610;2022-12-29T15:27:42;15.63;;;4.55;;
9306;SDS011;4691;47.612;7.610;2022-12-29T15:30:13;7.90;;;3.30;;
9306;SDS011;4691;47.612;7.610;2022-12-29T15:32:39;5.75;;;2.63;;
9306;SDS011;4691;47.612;7.610;2022-12-29T15:37:59;7.30;;;2.90;;
9306;SDS011;4691;47.612;7.610;2022-12-29T15:40:29;8.75;;;3.05;;
9306;SDS011;4691;47.612;7.610;2022-12-29T15:45:49;7.35;;;3.42;;
9306;SDS011;4691;47.612;7.610;2022-12-29T15:48:17;8.48;;;2.75;;
9306;SDS011;4691;47.612;7.610;2022-12-29T15:50:45;7.13;;;3.80;;
9306;SDS011;4691;47.612;7.610;2022-12-29T15:53:11;5.00;;;3.25;;
9306;SDS011;4691;47.612;7.610;2022-12-29T15:55:44;5.10;;;3.08;;
9306;SDS011;4691;47.612;7.610;2022-12-29T15:58:31;4.95;;;3.30;;
9306;SDS011;4691;47.612;7.610;2022-12-29T16:01:15;6.22;;;4.25;;
9306;SDS011;4691;47.612;7.610;2022-12-29T16:03:49;8.23;;;4.18;;
9306;SDS011;4691;47.612;7.610;2022-12-29T16:11:30;5.07;;;3.17;;
9306;SDS011;4691;47.612;7.610;2022-12-29T16:13:59;6.63;;;2.67;;
9306;SDS011;4691;47.612;7.610;2022-12-29T16:16:33;5.20;;;3.35;;
9306;SDS011;4691;47.612;7.610;2022-12-29T16:19:03;8.18;;;3.50;;
9306;SDS011;4691;47.612;7.610;2022-12-29T16:21:47;6.28;;;3.38;;
9306;SDS011;4691;47.612;7.610;2022-12-29T16:24:14;8.15;;;4.60;;
9306;SDS011;4691;47.612;7.610;2022-12-29T16:26:46;4.82;;;2.65;;
9306;SDS011;4691;47.612;7.610;2022-12-29T16:29:14;6.22;;;3.13;;
9306;SDS011;4691;47.612;7.610;2022-12-29T16:31:54;4.97;;;3.28;;
9306;SDS011;4691;47.612;7.610;2022-12-29T16:37:40;5.32;;;3.17;;
9306;SDS011;4691;47.612;7.610;2022-12-29T16:39:49;4.97;;;3.05;;
9306;SDS011;4691;47.612;7.610;2022-12-29T16:45:19;8.55;;;4.10;;
9306;SDS011;4691;47.612;7.610;2022-12-29T16:50:43;4.05;;;2.60;;
9306;SDS011;4691;47.612;7.610;2022-12-29T16:56:17;5.00;;;2.20;;
9306;SDS011;4691;47.612;7.610;2022-12-29T16:59:08;4.40;;;2.72;;
9306;SDS011;4691;47.612;7.610;2022-12-29T17:01:37;6.07;;;3.40;;
9306;SDS011;4691;47.612;7.610;2022-12-29T17:06:33;8.38;;;4.22;;
9306;SDS011;4691;47.612;7.610;2022-12-29T17:08:59;9.23;;;4.82;;
9306;SDS011;4691;47.612;7.610;2022-12-29T17:11:28;16.98;;;8.15;;
9306;SDS011;4691;47.612;7.610;2022-12-29T17:17:16;35.05;;;17.98;;
9306;SDS011;4691;47.612;7.610;2022-12-29T17:19:53;11.10;;;6.18;;
9306;SDS011;4691;47.612;7.610;2022-12-29T17:22:25;11.27;;;7.10;;
9306;SDS011;4691;47.612;7.610;2022-12-29T17:24:52;8.30;;;4.90;;
9306;SDS011;4691;47.612;7.610;2022-12-29T17:27:29;6.80;;;3.05;;
9306;SDS011;4691;47.612;7.610;2022-12-29T17:29:59;11.43;;;6.25;;
9306;SDS011;4691;47.612;7.610;2022-12-29T17:32:28;15.85;;;9.57;;
9306;SDS011;4691;47.612;7.610;2022-12-29T17:34:54;10.82;;;6.82;;
9306;SDS011;4691;47.612;7.610;2022-12-29T17:39:48;9.30;;;6.03;;
9306;SDS011;4691;47.612;7.610;2022-12-29T17:42:13;10.23;;;6.47;;
9306;SDS011;4691;47.612;7.610;2022-12-29T17:44:38;9.57;;;5.93;;
9306;SDS011;4691;47.612;7.610;2022-12-29T17:47:09;9.23;;;5.60;;
9306;SDS011;4691;47.612;7.610;2022-12-29T17:49:35;9.48;;;4.78;;
9306;SDS011;4691;47.612;7.610;2022-12-29T17:52:01;6.22;;;3.72;;
9306;SDS011;4691;47.612;7.610;2022-12-29T17:54:26;6.07;;;3.40;;
9306;SDS011;4691;47.612;7.610;2022-12-29T17:56:52;5.43;;;3.40;;
9306;SDS011;4691;47.612;7.610;2022-12-29T17:59:17;8.65;;;3.20;;
9306;SDS011;4691;47.612;7.610;2022-12-29T18:01:44;6.78;;;3.60;;
9306;SDS011;4691;47.612;7.610;2022-12-29T18:04:17;10.95;;;6.07;;
9306;SDS011;4691;47.612;7.610;2022-12-29T18:06:44;8.52;;;4.22;;
9306;SDS011;4691;47.612;7.610;2022-12-29T18:09:10;18.42;;;7.03;;
9306;SDS011;4691;47.612;7.610;2022-12-29T18:11:39;8.75;;;4.68;;
9306;SDS011;4691;47.612;7.610;2022-12-29T18:14:13;4.97;;;2.67;;
9306;SDS011;4691;47.612;7.610;2022-12-29T18:16:40;4.05;;;2.58;;
9306;SDS011;4691;47.612;7.610;2022-12-29T18:19:06;5.38;;;2.97;;
9306;SDS011;4691;47.612;7.610;2022-12-29T18:21:31;4.15;;;2.55;;
9306;SDS011;4691;47.612;7.610;2022-12-29T18:23:56;5.88;;;3.45;;
9306;SDS011;4691;47.612;7.610;2022-12-29T18:26:23;7.20;;;4.13;;
9306;SDS011;4691;47.612;7.610;2022-12-29T18:28:52;4.40;;;2.70;;
9306;SDS011;4691;47.612;7.610;2022-12-29T18:31:19;5.35;;;3.35;;
9306;SDS011;4691;47.612;7.610;2022-12-29T18:33:46;6.07;;;4.00;;
9306;SDS011;4691;47.612;7.610;2022-12-29T18:36:13;9.23;;;4.75;;
9306;SDS011;4691;47.612;7.610;2022-12-29T18:38:38;10.70;;;6.65;;
9306;SDS011;4691;47.612;7.610;2022-12-29T18:41:04;10.13;;;6.97;;
9306;SDS011;4691;47.612;7.610;2022-12-29T18:43:29;16.05;;;9.35;;
9306;SDS011;4691;47.612;7.610;2022-12-29T18:45:55;16.60;;;7.88;;
9306;SDS011;4691;47.612;7.610;2022-12-29T18:48:20;14.57;;;8.85;;
9306;SDS011;4691;47.612;7.610;2022-12-29T18:50:46;15.65;;;9.85;;
9306;SDS011;4691;47.612;7.610;2022-12-29T18:53:18;12.48;;;6.82;;
9306;SDS011;4691;47.612;7.610;2022-12-29T18:55:45;19.98;;;11.80;;
9306;SDS011;4691;47.612;7.610;2022-12-29T18:58:10;14.10;;;9.15;;
9306;SDS011;4691;47.612;7.610;2022-12-29T19:00:36;24.80;;;9.80;;
9306;SDS011;4691;47.612;7.610;2022-12-29T19:03:02;9.55;;;4.75;;
9306;SDS011;4691;47.612;7.610;2022-12-29T19:08:04;4.53;;;2.60;;
9306;SDS011;4691;47.612;7.610;2022-12-29T19:10:29;4.47;;;3.17;;
9306;SDS011;4691;47.612;7.610;2022-12-29T19:12:55;4.68;;;2.97;;
9306;SDS011;4691;47.612;7.610;2022-12-29T19:17:53;4.55;;;2.90;;
9306;SDS011;4691;47.612;7.610;2022-12-29T19:23:03;9.30;;;2.97;;
9306;SDS011;4691;47.612;7.610;2022-12-29T19:25:31;4.95;;;2.50;;
9306;SDS011;4691;47.612;7.610;2022-12-29T19:27:56;3.85;;;2.85;;
9306;SDS011;4691;47.612;7.610;2022-12-29T19:30:22;2.78;;;2.33;;
9306;SDS011;4691;47.612;7.610;2022-12-29T19:32:48;4.18;;;2.17;;
9306;SDS011;4691;47.612;7.610;2022-12-29T19:35:16;5.53;;;2.33;;
9306;SDS011;4691;47.612;7.610;2022-12-29T19:37:43;3.90;;;1.80;;
9306;SDS011;4691;47.612;7.610;2022-12-29T19:40:12;3.72;;;2.00;;
9306;SDS011;4691;47.612;7.610;2022-12-29T19:42:39;3.40;;;2.05;;
9306;SDS011;4691;47.612;7.610;2022-12-29T19:45:05;2.45;;;1.70;;
9306;SDS011;4691;47.612;7.610;2022-12-29T19:47:32;3.05;;;1.60;;
9306;SDS011;4691;47.612;7.610;2022-12-29T19:49:58;4.55;;;1.90;;
9306;SDS011;4691;47.612;7.610;2022-12-29T19:52:24;4.57;;;2.22;;
9306;SDS011;4691;47.612;7.610;2022-12-29T19:54:50;2.72;;;1.80;;
9306;SDS011;4691;47.612;7.610;2022-12-29T19:57:16;2.75;;;1.60;;
9306;SDS011;4691;47.612;7.610;2022-12-29T19:59:41;2.13;;;1.40;;
9306;SDS011;4691;47.612;7.610;2022-12-29T20:02:09;4.00;;;2.15;;
9306;SDS011;4691;47.612;7.610;2022-12-29T20:04:42;2.92;;;1.67;;
9306;SDS011;4691;47.612;7.610;2022-12-29T20:07:08;3.58;;;2.00;;
9306;SDS011;4691;47.612;7.610;2022-12-29T20:09:33;2.00;;;1.33;;
9306;SDS011;4691;47.612;7.610;2022-12-29T20:11:59;1.67;;;1.23;;
9306;SDS011;4691;47.612;7.610;2022-12-29T20:14:24;4.07;;;2.50;;
9306;SDS011;4691;47.612;7.610;2022-12-29T20:16:49;4.60;;;2.72;;
9306;SDS011;4691;47.612;7.610;2022-12-29T20:19:15;3.03;;;1.65;;
9306;SDS011;4691;47.612;7.610;2022-12-29T20:21:40;2.53;;;1.20;;
9306;SDS011;4691;47.612;7.610;2022-12-29T20:24:06;2.42;;;1.50;;
9306;SDS011;4691;47.612;7.610;2022-12-29T20:26:32;1.83;;;1.13;;
9306;SDS011;4691;47.612;7.610;2022-12-29T20:28:57;1.48;;;1.00;;
9306;SDS011;4691;47.612;7.610;2022-12-29T20:31:25;1.45;;;1.05;;
9306;SDS011;4691;47.612;7.610;2022-12-29T20:33:53;3.13;;;1.92;;
9306;SDS011;4691;47.612;7.610;2022-12-29T20:36:20;5.10;;;2.58;;
9306;SDS011;4691;47.612;7.610;2022-12-29T20:38:48;3.20;;;1.30;;
9306;SDS011;4691;47.612;7.610;2022-12-29T20:41:15;3.72;;;1.50;;
9306;SDS011;4691;47.612;7.610;2022-12-29T20:43:41;2.50;;;1.17;;
9306;SDS011;4691;47.612;7.610;2022-12-29T20:46:07;2.13;;;1.00;;
9306;SDS011;4691;47.612;7.610;2022-12-29T20:48:33;2.88;;;1.17;;
9306;SDS011;4691;47.612;7.610;2022-12-29T20:50:59;1.75;;;1.20;;
9306;SDS011;4691;47.612;7.610;2022-12-29T20:53:25;1.83;;;1.10;;
9306;SDS011;4691;47.612;7.610;2022-12-29T20:55:51;1.75;;;1.10;;
9306;SDS011;4691;47.612;7.610;2022-12-29T20:58:24;1.27;;;0.98;;
9306;SDS011;4691;47.612;7.610;2022-12-29T21:00:50;2.10;;;1.10;;
9306;SDS011;4691;47.612;7.610;2022-12-29T21:03:15;1.20;;;0.88;;
9306;SDS011;4691;47.612;7.610;2022-12-29T21:05:40;2.05;;;1.35;;
9306;SDS011;4691;47.612;7.610;2022-12-29T21:08:06;2.97;;;1.40;;
9306;SDS011;4691;47.612;7.610;2022-12-29T21:10:31;1.92;;;0.93;;
9306;SDS011;4691;47.612;7.610;2022-12-29T21:12:56;2.38;;;1.15;;
9306;SDS011;4691;47.612;7.610;2022-12-29T21:15:22;1.55;;;1.02;;
9306;SDS011;4691;47.612;7.610;2022-12-29T21:17:47;1.70;;;1.25;;
9306;SDS011;4691;47.612;7.610;2022-12-29T21:20:13;2.60;;;1.20;;
9306;SDS011;4691;47.612;7.610;2022-12-29T21:22:53;1.75;;;1.15;;
9306;SDS011;4691;47.612;7.610;2022-12-29T21:25:20;3.13;;;1.02;;
9306;SDS011;4691;47.612;7.610;2022-12-29T21:27:45;2.15;;;1.23;;
9306;SDS011;4691;47.612;7.610;2022-12-29T21:30:11;1.95;;;1.00;;
9306;SDS011;4691;47.612;7.610;2022-12-29T21:32:37;1.45;;;0.98;;
9306;SDS011;4691;47.612;7.610;2022-12-29T21:35:02;1.52;;;0.88;;
9306;SDS011;4691;47.612;7.610;2022-12-29T21:37:28;2.50;;;0.90;;
9306;SDS011;4691;47.612;7.610;2022-12-29T21:39:53;3.30;;;1.23;;
9306;SDS011;4691;47.612;7.610;2022-12-29T21:42:19;2.55;;;0.90;;
9306;SDS011;4691;47.612;7.610;2022-12-29T21:44:44;4.10;;;1.00;;
9306;SDS011;4691;47.612;7.610;2022-12-29T21:47:28;1.25;;;0.85;;
9306;SDS011;4691;47.612;7.610;2022-12-29T21:50:17;1.55;;;0.98;;
9306;SDS011;4691;47.612;7.610;2022-12-29T21:52:42;2.30;;;1.42;;
9306;SDS011;4691;47.612;7.610;2022-12-29T21:55:08;1.67;;;0.95;;
9306;SDS011;4691;47.612;7.610;2022-12-29T21:57:34;2.35;;;1.45;;
9306;SDS011;4691;47.612;7.610;2022-12-29T22:00:19;3.80;;;1.80;;
9306;SDS011;4691;47.612;7.610;2022-12-29T22:03:03;6.13;;;1.40;;
9306;SDS011;4691;47.612;7.610;2022-12-29T22:05:47;2.97;;;1.42;;
9306;SDS011;4691;47.612;7.610;2022-12-29T22:08:30;3.70;;;1.10;;
9306;SDS011;4691;47.612;7.610;2022-12-29T22:11:14;4.80;;;1.20;;
9306;SDS011;4691;47.612;7.610;2022-12-29T22:13:58;2.47;;;1.00;;
9306;SDS011;4691;47.612;7.610;2022-12-29T22:16:25;1.60;;;1.00;;
9306;SDS011;4691;47.612;7.610;2022-12-29T22:18:51;3.22;;;1.33;;
9306;SDS011;4691;47.612;7.610;2022-12-29T22:21:17;2.03;;;1.10;;
9306;SDS011;4691;47.612;7.610;2022-12-29T22:23:43;2.30;;;1.15;;
9306;SDS011;4691;47.612;7.610;2022-12-29T22:26:09;1.90;;;0.90;;